createdAt,value
2018-09-19T00:00:17.038Z,2.90
2018-09-19T00:02:48.246Z,2.53
2018-09-19T00:05:19.934Z,2.50
2018-09-19T00:07:51.263Z,3.37
2018-09-19T00:10:22.644Z,3.20
2018-09-19T00:12:53.736Z,3.83
2018-09-19T00:15:24.819Z,3.80
2018-09-19T00:17:55.971Z,3.53
2018-09-19T00:20:26.796Z,4.00
2018-09-19T00:22:57.891Z,3.50
2018-09-19T00:25:29.280Z,3.70
2018-09-19T00:28:00.217Z,3.87
2018-09-19T00:30:31.896Z,4.00
2018-09-19T00:33:02.903Z,3.80
2018-09-19T00:35:34.695Z,4.10
2018-09-19T00:38:06.224Z,4.40
2018-09-19T00:40:37.632Z,4.27
2018-09-19T00:43:08.894Z,5.77
2018-09-19T00:45:39.938Z,11.17
2018-09-19T00:48:11.193Z,9.77
2018-09-19T00:50:42.189Z,9.80
2018-09-19T00:53:13.219Z,9.67
2018-09-19T00:55:44.249Z,10.47
2018-09-19T00:58:15.540Z,10.90
2018-09-19T01:00:46.956Z,9.87
2018-09-19T01:03:18.527Z,8.73
2018-09-19T01:05:50.141Z,10.63
2018-09-19T01:08:21.311Z,11.60
2018-09-19T01:10:51.599Z,10.53
2018-09-19T01:13:22.821Z,7.97
2018-09-19T01:15:53.822Z,9.00
2018-09-19T01:18:24.986Z,8.33
2018-09-19T01:20:56.575Z,6.87
2018-09-19T01:23:27.437Z,5.90
2018-09-19T01:25:58.973Z,4.73
2018-09-19T01:28:30.292Z,4.00
2018-09-19T01:31:01.499Z,3.93
2018-09-19T01:33:32.835Z,4.47
2018-09-19T01:36:04.583Z,4.17
2018-09-19T01:38:35.737Z,3.23
2018-09-19T01:41:07.014Z,3.67
2018-09-19T01:43:38.001Z,3.77
2018-09-19T01:46:09.217Z,3.60
2018-09-19T01:48:40.736Z,3.40
2018-09-19T01:51:11.868Z,3.37
2018-09-19T01:53:42.940Z,3.60
2018-09-19T01:56:13.906Z,3.40
2018-09-19T01:58:45.017Z,3.20
2018-09-19T02:01:16.495Z,3.70
2018-09-19T02:03:48.330Z,3.73
2018-09-19T02:06:20.124Z,3.63
2018-09-19T02:08:50.921Z,3.63
2018-09-19T02:11:22.329Z,3.70
2018-09-19T02:13:53.755Z,3.90
2018-09-19T02:16:24.774Z,3.40
2018-09-19T02:18:56.122Z,3.50
2018-09-19T02:21:27.068Z,3.50
2018-09-19T02:23:57.496Z,3.73
2018-09-19T02:26:28.417Z,3.93
2018-09-19T02:28:59.622Z,3.70
2018-09-19T02:31:30.689Z,3.77
2018-09-19T02:34:01.107Z,3.87
2018-09-19T02:36:32.367Z,3.97
2018-09-19T02:39:04.504Z,3.50
2018-09-19T02:41:35.909Z,4.00
2018-09-19T02:44:06.929Z,3.93
2018-09-19T02:46:37.782Z,3.57
2018-09-19T02:49:09.092Z,5.33
2018-09-19T02:51:41.106Z,4.80
2018-09-19T02:54:12.659Z,3.90
2018-09-19T02:56:43.697Z,3.70
2018-09-19T02:59:15.133Z,4.10
2018-09-19T03:01:46.035Z,3.77
2018-09-19T03:04:17.124Z,3.20
2018-09-19T03:06:48.371Z,3.90
2018-09-19T03:09:19.452Z,3.90
2018-09-19T03:11:49.644Z,3.57
2018-09-19T03:14:20.465Z,3.47
2018-09-19T03:19:22.080Z,3.77
2018-09-19T03:21:53.108Z,5.27
2018-09-19T03:24:23.435Z,4.93
2018-09-19T03:26:54.370Z,4.90
2018-09-19T03:29:25.260Z,5.10
2018-09-19T03:31:56.761Z,4.90
2018-09-19T03:34:27.852Z,6.30
2018-09-19T03:36:58.721Z,5.00
2018-09-19T03:39:30.592Z,5.37
2018-09-19T03:42:01.604Z,4.73
2018-09-19T03:44:32.645Z,4.47
2018-09-19T03:47:04.132Z,5.00
2018-09-19T03:49:35.166Z,5.60
2018-09-19T03:52:05.882Z,4.80
2018-09-19T03:54:36.610Z,5.60
2018-09-19T03:57:07.795Z,5.17
2018-09-19T03:59:39.033Z,5.67
2018-09-19T04:02:10.842Z,4.80
2018-09-19T04:04:41.448Z,9.93
2018-09-19T04:07:13.144Z,5.77
2018-09-19T04:09:44.304Z,5.27
2018-09-19T04:12:15.940Z,5.77
2018-09-19T04:14:47.353Z,5.40
2018-09-19T04:17:18.397Z,5.33
2018-09-19T04:19:49.688Z,5.50
2018-09-19T04:22:22.009Z,5.37
2018-09-19T04:24:53.145Z,5.43
2018-09-19T04:27:23.970Z,5.30
2018-09-19T04:29:55.482Z,8.20
2018-09-19T04:32:27.465Z,17.37
2018-09-19T04:34:58.398Z,10.37
2018-09-19T04:37:29.448Z,5.90
2018-09-19T04:40:00.091Z,6.83
2018-09-19T04:42:31.691Z,8.17
2018-09-19T04:45:03.260Z,6.60
2018-09-19T04:47:34.674Z,6.80
2018-09-19T04:50:06.123Z,6.47
2018-09-19T04:52:37.114Z,7.53
2018-09-19T04:55:08.179Z,7.93
2018-09-19T04:57:39.235Z,7.07
2018-09-19T05:00:10.474Z,7.60
2018-09-19T05:02:41.758Z,11.47
2018-09-19T05:05:13.380Z,12.80
2018-09-19T05:07:44.417Z,12.23
2018-09-19T05:10:16.135Z,14.53
2018-09-19T05:12:47.567Z,12.67
2018-09-19T05:15:18.573Z,11.70
2018-09-19T05:17:48.845Z,14.27
2018-09-19T05:20:19.116Z,11.63
2018-09-19T05:22:49.613Z,13.57
2018-09-19T05:25:19.894Z,13.20
2018-09-19T05:27:50.355Z,10.97
2018-09-19T05:30:21.223Z,8.80
2018-09-19T05:32:51.316Z,9.70
2018-09-19T05:35:21.571Z,9.70
2018-09-19T05:37:51.626Z,10.13
2018-09-19T05:40:21.742Z,9.17
2018-09-19T05:42:52.000Z,9.07
2018-09-19T05:45:22.141Z,10.03
2018-09-19T05:47:52.262Z,9.70
2018-09-19T05:50:22.632Z,8.20
2018-09-19T05:52:52.862Z,9.20
2018-09-19T05:55:23.156Z,7.87
2018-09-19T05:57:53.454Z,8.07
2018-09-19T06:00:23.587Z,8.73
2018-09-19T06:02:53.917Z,8.33
2018-09-19T06:05:24.023Z,8.43
2018-09-19T06:07:54.252Z,8.70
2018-09-19T06:10:24.176Z,8.07
2018-09-19T06:12:54.491Z,8.40
2018-09-19T06:15:24.775Z,9.27
2018-09-19T06:17:54.914Z,9.13
2018-09-19T06:20:25.306Z,9.23
2018-09-19T06:22:55.648Z,9.17
2018-09-19T06:25:25.827Z,8.00
2018-09-19T06:27:56.163Z,7.50
2018-09-19T06:30:26.390Z,7.93
2018-09-19T06:32:56.873Z,7.63
2018-09-19T06:35:27.011Z,7.47
2018-09-19T06:37:57.091Z,8.10
2018-09-19T06:40:27.326Z,6.80
2018-09-19T06:42:57.491Z,6.73
2018-09-19T06:45:27.749Z,7.40
2018-09-19T06:47:58.028Z,7.13
2018-09-19T06:50:28.420Z,6.50
2018-09-19T06:52:59.334Z,6.90
2018-09-19T06:55:29.829Z,7.33
2018-09-19T06:57:59.799Z,6.40
2018-09-19T07:00:29.970Z,7.73
2018-09-19T07:03:00.043Z,6.37
2018-09-19T07:05:30.307Z,6.53
2018-09-19T07:08:00.413Z,6.00
2018-09-19T07:10:30.679Z,6.40
2018-09-19T07:13:00.780Z,7.17
2018-09-19T07:15:31.073Z,5.60
2018-09-19T07:18:01.392Z,5.33
2018-09-19T07:20:31.631Z,5.33
2018-09-19T07:23:02.345Z,5.17
2018-09-19T07:25:32.403Z,5.70
2018-09-19T07:28:02.593Z,5.90
2018-09-19T07:30:32.512Z,6.23
2018-09-19T07:33:02.605Z,4.33
2018-09-19T07:35:32.812Z,3.40
2018-09-19T07:38:02.933Z,3.73
2018-09-19T07:40:33.210Z,3.93
2018-09-19T07:43:03.452Z,4.13
2018-09-19T07:45:34.189Z,4.30
2018-09-19T07:48:04.345Z,5.73
2018-09-19T07:50:34.597Z,6.47
2018-09-19T07:53:04.983Z,6.53
2018-09-19T07:55:35.624Z,5.30
2018-09-19T07:58:05.753Z,4.80
2018-09-19T08:00:36.375Z,4.60
2018-09-19T08:03:06.365Z,5.00
2018-09-19T08:05:36.482Z,5.03
2018-09-19T08:08:06.817Z,4.90
2018-09-19T08:10:37.067Z,5.90
2018-09-19T08:13:07.554Z,6.13
2018-09-19T08:15:37.849Z,5.10
2018-09-19T08:18:07.866Z,5.57
2018-09-19T08:20:38.028Z,5.47
2018-09-19T08:23:08.666Z,5.73
2018-09-19T08:25:38.869Z,6.33
2018-09-19T08:28:09.295Z,6.00
2018-09-19T08:30:39.451Z,6.07
2018-09-19T08:33:09.752Z,5.60
2018-09-19T08:35:39.772Z,5.30
2018-09-19T08:38:09.862Z,4.70
2018-09-19T08:40:40.109Z,5.53
2018-09-19T08:43:10.586Z,5.50
2018-09-19T08:45:41.217Z,5.23
2018-09-19T08:48:11.239Z,5.83
2018-09-19T08:50:41.527Z,6.50
2018-09-19T08:53:13.373Z,5.60
2018-09-19T08:55:43.692Z,5.13
2018-09-19T08:58:13.763Z,5.27
2018-09-19T09:00:43.958Z,5.17
2018-09-19T09:03:14.291Z,4.83
2018-09-19T09:05:44.564Z,5.00
2018-09-19T09:08:15.202Z,5.47
2018-09-19T09:10:45.382Z,4.70
2018-09-19T09:13:15.513Z,5.20
2018-09-19T09:15:45.776Z,4.63
2018-09-19T09:18:16.222Z,4.93
2018-09-19T09:20:46.512Z,4.67
2018-09-19T09:23:16.743Z,5.03
2018-09-19T09:25:46.772Z,4.33
2018-09-19T09:28:17.038Z,4.90
2018-09-19T09:30:47.290Z,4.23
2018-09-19T09:33:17.708Z,4.57
2018-09-19T09:35:47.890Z,4.47
2018-09-19T09:38:17.963Z,4.10
2018-09-19T09:40:48.134Z,3.90
2018-09-19T09:43:18.425Z,3.90
2018-09-19T09:45:48.766Z,3.93
2018-09-19T09:48:19.113Z,3.77
2018-09-19T09:50:49.267Z,4.13
2018-09-19T09:53:19.559Z,3.67
2018-09-19T09:55:49.775Z,3.53
2018-09-19T09:58:20.003Z,3.03
2018-09-19T10:00:50.037Z,3.27
2018-09-19T10:04:49.506Z,2.90
2018-09-19T10:07:19.854Z,2.80
2018-09-19T10:09:50.068Z,2.70
2018-09-19T10:12:20.273Z,3.00
2018-09-19T10:14:50.940Z,2.70
2018-09-19T10:17:21.037Z,2.60
2018-09-19T10:19:51.397Z,2.47
2018-09-19T10:22:21.648Z,4.73
2018-09-19T10:24:51.705Z,2.77
2018-09-19T10:27:22.094Z,2.93
2018-09-19T10:29:52.317Z,2.80
2018-09-19T10:32:22.394Z,2.70
2018-09-19T10:34:52.470Z,3.27
2018-09-19T10:37:22.602Z,3.27
2018-09-19T10:39:52.903Z,9.00
2018-09-19T10:42:23.105Z,2.90
2018-09-19T10:44:53.388Z,2.83
2018-09-19T10:47:23.415Z,2.63
2018-09-19T10:49:53.622Z,2.90
2018-09-19T10:52:23.830Z,2.77
2018-09-19T10:54:54.026Z,3.00
2018-09-19T10:57:24.084Z,2.90
2018-09-19T10:59:54.248Z,3.50
2018-09-19T11:02:24.221Z,3.00
2018-09-19T11:04:54.531Z,3.30
2018-09-19T11:07:24.793Z,3.27
2018-09-19T11:09:55.077Z,2.60
2018-09-19T11:12:25.164Z,3.10
2018-09-19T11:14:55.433Z,3.02
2018-09-19T11:17:25.597Z,2.80
2018-09-19T11:19:55.838Z,2.63
2018-09-19T11:22:26.030Z,2.90
2018-09-19T11:24:56.852Z,2.40
2018-09-19T11:27:27.072Z,3.27
2018-09-19T11:29:57.689Z,2.80
2018-09-19T11:32:28.020Z,2.47
2018-09-19T11:34:58.245Z,2.20
2018-09-19T11:37:28.390Z,2.35
2018-09-19T11:39:58.616Z,2.60
2018-09-19T11:42:28.892Z,2.45
2018-09-19T11:44:59.028Z,2.17
2018-09-19T11:47:29.386Z,2.37
2018-09-19T11:49:59.798Z,2.30
2018-09-19T11:52:30.007Z,2.30
2018-09-19T11:55:00.267Z,2.60
2018-09-19T11:57:30.514Z,2.87
2018-09-19T12:00:00.686Z,2.22
2018-09-19T12:02:31.614Z,2.00
2018-09-19T12:05:02.097Z,1.87
2018-09-19T12:07:32.743Z,1.87
2018-09-19T12:10:03.183Z,1.83
2018-09-19T12:12:34.019Z,2.33
2018-09-19T12:15:05.043Z,2.10
2018-09-19T12:17:35.357Z,1.70
2018-09-19T12:20:05.639Z,1.90
2018-09-19T12:22:35.858Z,1.90
2018-09-19T12:25:06.690Z,2.20
2018-09-19T12:27:37.151Z,1.80
2018-09-19T12:30:07.618Z,1.77
2018-09-19T12:32:37.941Z,1.70
2018-09-19T12:35:08.224Z,1.87
2018-09-19T12:37:38.158Z,2.17
2018-09-19T12:40:08.414Z,1.90
2018-09-19T12:42:39.218Z,1.72
2018-09-19T12:45:09.638Z,1.92
2018-09-19T12:47:39.624Z,1.75
2018-09-19T12:50:10.068Z,2.20
2018-09-19T12:52:40.276Z,2.60
2018-09-19T12:55:10.673Z,1.93
2018-09-19T12:57:41.046Z,1.87
2018-09-19T13:00:11.472Z,1.60
2018-09-19T13:02:41.386Z,2.17
2018-09-19T13:05:11.685Z,2.25
2018-09-19T13:07:41.883Z,1.60
2018-09-19T13:10:12.152Z,1.60
2018-09-19T13:12:42.392Z,1.82
2018-09-19T13:15:14.410Z,1.82
2018-09-19T13:17:44.810Z,1.80
2018-09-19T13:20:15.158Z,2.37
2018-09-19T13:22:45.494Z,1.87
2018-09-19T13:25:15.686Z,1.67
2018-09-19T13:27:45.960Z,1.60
2018-09-19T13:30:16.224Z,24.77
2018-09-19T13:32:46.461Z,2.40
2018-09-19T13:35:16.604Z,1.90
2018-09-19T13:37:46.864Z,2.10
2018-09-19T13:40:17.376Z,2.75
2018-09-19T13:42:48.075Z,2.80
2018-09-19T13:45:21.259Z,2.17
2018-09-19T13:47:51.930Z,2.35
2018-09-19T13:50:29.539Z,1.90
2018-09-19T13:52:59.503Z,2.10
2018-09-19T13:55:29.757Z,2.60
2018-09-19T13:57:59.677Z,2.10
2018-09-19T14:00:29.741Z,2.05
2018-09-19T14:02:59.919Z,2.10
2018-09-19T14:05:30.311Z,2.20
2018-09-19T14:08:00.351Z,2.12
2018-09-19T14:10:30.452Z,2.25
2018-09-19T14:13:00.676Z,2.10
2018-09-19T14:15:31.460Z,2.10
2018-09-19T14:18:01.559Z,2.90
2018-09-19T14:20:31.678Z,3.00
2018-09-19T14:23:02.199Z,2.90
2018-09-19T14:25:32.441Z,3.00
2018-09-19T14:28:02.614Z,2.50
2018-09-19T14:30:32.727Z,2.30
2018-09-19T14:33:03.222Z,2.50
2018-09-19T14:35:33.719Z,2.43
2018-09-19T14:38:03.941Z,2.33
2018-09-19T14:40:33.963Z,2.62
2018-09-19T14:43:04.190Z,2.77
2018-09-19T14:45:34.468Z,3.40
2018-09-19T14:48:04.638Z,3.10
2018-09-19T14:50:34.903Z,3.47
2018-09-19T14:53:05.241Z,4.58
2018-09-19T14:55:35.445Z,4.40
2018-09-19T14:58:05.739Z,3.47
2018-09-19T15:00:35.961Z,3.00
2018-09-19T15:03:06.122Z,3.23
2018-09-19T15:05:36.475Z,2.80
2018-09-19T15:08:07.548Z,3.03
2018-09-19T15:10:37.965Z,3.30
2018-09-19T15:13:08.292Z,4.57
2018-09-19T15:15:38.547Z,3.10
2018-09-19T15:18:08.540Z,2.60
2018-09-19T15:20:38.895Z,3.20
2018-09-19T15:23:09.089Z,2.90
2018-09-19T15:25:39.341Z,3.00
2018-09-19T15:28:09.518Z,3.70
2018-09-19T15:30:39.792Z,3.23
2018-09-19T15:33:10.033Z,4.00
2018-09-19T15:35:40.275Z,3.60
2018-09-19T15:38:10.579Z,19.10
2018-09-19T15:40:40.614Z,5.53
2018-09-19T15:43:10.732Z,4.00
2018-09-19T15:45:41.041Z,4.03
2018-09-19T15:48:11.160Z,18.03
2018-09-19T15:50:41.344Z,7.97
2018-09-19T15:53:11.575Z,3.90
2018-09-19T15:55:41.903Z,3.60
2018-09-19T15:58:12.132Z,3.50
2018-09-19T16:00:42.385Z,3.97
2018-09-19T16:03:12.659Z,3.93
2018-09-19T16:05:42.992Z,3.83
2018-09-19T16:08:13.208Z,3.53
2018-09-19T16:10:43.623Z,3.60
2018-09-19T16:13:13.845Z,3.70
2018-09-19T16:15:44.257Z,3.93
2018-09-19T16:18:14.373Z,3.93
2018-09-19T16:20:44.731Z,4.03
2018-09-19T16:23:14.961Z,3.53
2018-09-19T16:25:45.432Z,4.97
2018-09-19T16:28:15.878Z,3.90
2018-09-19T16:30:46.123Z,3.90
2018-09-19T16:33:16.362Z,3.63
2018-09-19T16:35:46.802Z,3.63
2018-09-19T16:38:16.852Z,3.33
2018-09-19T16:40:47.038Z,3.17
2018-09-19T16:43:17.148Z,3.30
2018-09-19T16:45:47.381Z,4.03
2018-09-19T16:48:17.456Z,4.10
2018-09-19T16:50:47.601Z,5.47
2018-09-19T16:53:17.741Z,4.20
2018-09-19T16:55:47.786Z,4.20
2018-09-19T16:58:18.046Z,3.60
2018-09-19T17:00:48.403Z,3.50
2018-09-19T17:15:10.061Z,3.90
2018-09-19T17:20:39.405Z,5.27
2018-09-19T17:23:10.053Z,5.87
2018-09-19T17:25:40.692Z,4.47
2018-09-19T17:28:10.990Z,4.37
2018-09-19T17:30:41.198Z,4.27
2018-09-19T17:33:11.515Z,4.40
2018-09-19T17:35:41.694Z,4.43
2018-09-19T17:38:12.055Z,4.47
2018-09-19T17:40:42.063Z,4.13
2018-09-19T17:43:12.462Z,4.20
2018-09-19T17:45:42.879Z,4.00
2018-09-19T17:48:12.974Z,4.40
2018-09-19T17:50:43.084Z,4.30
2018-09-19T17:53:13.266Z,4.03
2018-09-19T17:55:43.480Z,4.37
2018-09-19T17:58:13.578Z,4.27
2018-09-19T18:00:44.284Z,3.63
2018-09-19T18:03:14.529Z,3.70
2018-09-19T18:05:44.718Z,3.60
2018-09-19T18:08:15.219Z,4.10
2018-09-19T18:10:45.452Z,3.77
2018-09-19T18:13:15.580Z,3.90
2018-09-19T18:15:45.706Z,4.00
2018-09-19T18:18:15.886Z,4.43
2018-09-19T18:20:46.146Z,3.67
2018-09-19T18:23:16.551Z,3.90
2018-09-19T18:25:46.844Z,3.80
2018-09-19T18:28:16.850Z,4.00
2018-09-19T18:30:47.031Z,3.50
2018-09-19T18:33:17.200Z,3.87
2018-09-19T18:35:47.547Z,3.60
2018-09-19T18:38:17.750Z,4.33
2018-09-19T18:40:48.330Z,3.97
2018-09-19T18:43:18.842Z,3.73
2018-09-19T18:45:49.815Z,3.80
2018-09-19T18:48:20.074Z,4.00
2018-09-19T18:50:50.254Z,3.70
2018-09-19T18:53:20.491Z,4.00
2018-09-19T18:55:50.616Z,4.10
2018-09-19T18:58:21.003Z,4.00
2018-09-19T19:00:51.189Z,4.53
2018-09-19T19:03:21.447Z,4.57
2018-09-19T19:05:51.805Z,4.40
2018-09-19T19:08:22.036Z,4.20
2018-09-19T19:10:52.210Z,3.97
2018-09-19T19:13:22.337Z,4.20
2018-09-19T19:15:52.469Z,4.67
2018-09-19T19:18:22.885Z,4.60
2018-09-19T19:20:53.283Z,4.73
2018-09-19T19:23:23.559Z,4.37
2018-09-19T19:25:53.648Z,4.60
2018-09-19T19:28:23.769Z,4.50
2018-09-19T19:30:54.300Z,4.43
2018-09-19T19:33:24.758Z,3.83
2018-09-19T19:35:55.090Z,4.50
2018-09-19T19:38:25.254Z,4.20
2018-09-19T19:40:55.461Z,4.10
2018-09-19T19:43:25.610Z,4.20
2018-09-19T19:45:56.199Z,4.67
2018-09-19T19:48:26.396Z,4.80
2018-09-19T19:50:56.624Z,5.17
2018-09-19T19:53:26.959Z,5.17
2018-09-19T19:55:57.469Z,4.77
2018-09-19T19:58:27.759Z,4.47
2018-09-19T20:00:57.930Z,4.53
2018-09-19T20:03:28.115Z,4.83
2018-09-19T20:05:58.645Z,5.03
2018-09-19T20:08:29.711Z,4.73
2018-09-19T20:10:59.812Z,4.50
2018-09-19T20:13:31.393Z,4.67
2018-09-19T20:16:03.548Z,4.70
2018-09-19T20:18:35.129Z,4.90
2018-09-19T20:21:06.819Z,4.83
2018-09-19T20:23:38.261Z,4.53
2018-09-19T20:26:10.245Z,4.57
2018-09-19T20:28:42.113Z,4.70
2018-09-19T20:31:13.052Z,5.13
2018-09-19T20:33:44.561Z,4.80
2018-09-19T20:36:16.526Z,4.50
2018-09-19T20:38:48.248Z,4.57
2018-09-19T20:41:19.697Z,4.47
2018-09-19T20:43:51.118Z,4.50
2018-09-19T20:46:23.292Z,4.50
2018-09-19T20:48:54.679Z,5.10
2018-09-19T20:51:26.771Z,4.57
2018-09-19T20:53:57.727Z,5.00
2018-09-19T20:56:28.960Z,4.90
2018-09-19T20:59:00.422Z,4.87
2018-09-19T21:01:31.848Z,4.40
2018-09-19T21:04:02.801Z,4.77
2018-09-19T21:06:33.470Z,4.80
2018-09-19T21:09:05.468Z,4.57
2018-09-19T21:11:36.214Z,4.77
2018-09-19T21:14:07.508Z,4.60
2018-09-19T21:16:37.872Z,4.50
2018-09-19T21:19:09.260Z,4.53
2018-09-19T21:21:41.070Z,4.13
2018-09-19T21:24:12.694Z,4.30
2018-09-19T21:26:43.998Z,4.47
2018-09-19T21:29:14.954Z,4.77
2018-09-19T21:31:46.537Z,4.30
2018-09-19T21:34:17.923Z,4.47
2018-09-19T21:36:49.076Z,5.33
2018-09-19T21:39:20.134Z,6.87
2018-09-19T21:41:51.109Z,6.23
2018-09-19T21:44:22.251Z,5.93
2018-09-19T21:46:52.655Z,7.30
2018-09-19T21:49:24.247Z,12.10
2018-09-19T21:51:55.674Z,8.03
2018-09-19T21:54:27.579Z,11.60
2018-09-19T21:56:58.720Z,9.03
2018-09-19T21:59:30.156Z,7.83
2018-09-19T22:02:01.825Z,7.23
2018-09-19T22:04:32.971Z,6.27
2018-09-19T22:07:03.950Z,5.33
2018-09-19T22:09:34.605Z,5.80
2018-09-19T22:12:10.977Z,5.90
2018-09-19T22:14:43.308Z,4.93
2018-09-19T22:17:14.568Z,4.90
2018-09-19T22:19:45.792Z,4.73
2018-09-19T22:22:18.040Z,4.73
2018-09-19T22:24:49.404Z,4.80
2018-09-19T22:27:20.429Z,4.67
2018-09-19T22:29:51.634Z,4.60
2018-09-19T22:32:23.280Z,4.40
2018-09-19T22:34:54.669Z,4.57
2018-09-19T22:37:25.741Z,4.40
2018-09-19T22:39:56.445Z,4.33
2018-09-19T22:42:27.726Z,4.97
2018-09-19T22:44:59.040Z,4.83
2018-09-19T22:47:30.465Z,5.00
2018-09-19T22:50:01.669Z,4.70
2018-09-19T22:52:32.718Z,4.30
2018-09-19T22:55:04.067Z,4.57
2018-09-19T22:57:35.507Z,4.63
2018-09-19T23:00:06.549Z,4.50
2018-09-19T23:02:37.268Z,4.30
2018-09-19T23:05:07.951Z,4.73
2018-09-19T23:07:39.348Z,4.67
2018-09-19T23:10:10.597Z,5.13
2018-09-19T23:12:42.189Z,4.77
2018-09-19T23:15:13.561Z,4.30
2018-09-19T23:17:44.531Z,4.87
2018-09-19T23:20:15.771Z,4.67
2018-09-19T23:22:47.078Z,3.93
2018-09-19T23:25:18.653Z,4.57
2018-09-19T23:27:50.423Z,4.27
2018-09-19T23:30:21.202Z,4.47
2018-09-19T23:32:52.395Z,5.20
2018-09-19T23:35:23.568Z,5.67
2018-09-19T23:37:54.433Z,5.30
2018-09-19T23:40:25.376Z,5.50
2018-09-19T23:42:56.479Z,4.80
2018-09-19T23:45:27.834Z,4.57
2018-09-19T23:47:58.224Z,4.30
2018-09-19T23:50:29.783Z,4.77
2018-09-19T23:53:01.296Z,4.50
2018-09-19T23:55:32.976Z,5.03
2018-09-19T23:58:04.246Z,5.43
